Погода:Россия/Саратовская область/Балаково/Источники/OpenWeatherMap/1

Материал из Онлайн справочника
Перейти к навигации Перейти к поиску

Перевод: Максим Кузьмин (Cubewriter) Контакты:</br>* Skype: cubewriter</br>* E-mail: cubewriter@gmail.com</br>* Максим Кузьмин на freelance.ru
Проверка/Оформление/Редактирование: Мякишев Е.А.


Данные[1]

Все данные

 Дата и время в UTC-форматеТемператураЭто свойство относится к числу специальных свойств данного вики-сайта.Максимальная температура на данный моментМинимальная температура на данный моментСкорость ветраПасмурностьВлажностьАтмосферное давление относительно уровня моряМетеорологическое направление ветраОписание погодного условия
Россия/Саратовская область/Балаково/Источники/OpenWeatherMap/1/2839968001979-01-01 00:00:00 +0000 UTC-34,64 °C238,51 K <br />-30,352 °F <br />429,318 °R <br />-34,64 °C238,51 K <br />-30,352 °F <br />429,318 °R <br />-34,64 °C238,51 K <br />-30,352 °F <br />429,318 °R <br />4,19 м/с100 %73 %1028 гПа39 градус(градусов)Сплошная облачность: 85-100%
Россия/Саратовская область/Балаково/Источники/OpenWeatherMap/1/2840004001979-01-01 01:00:00 +0000 UTC-34,96 °C238,19 K <br />-30,928 °F <br />428,742 °R <br />-34,96 °C238,19 K <br />-30,928 °F <br />428,742 °R <br />-34,96 °C238,19 K <br />-30,928 °F <br />428,742 °R <br />4,1 м/с0 %74 %1028 гПа42 градус(градусов)Ясное небо
Россия/Саратовская область/Балаково/Источники/OpenWeatherMap/1/2840040001979-01-01 02:00:00 +0000 UTC-35,09 °C238,06 K <br />-31,162 °F <br />428,508 °R <br />-35,09 °C238,06 K <br />-31,162 °F <br />428,508 °R <br />-35,09 °C238,06 K <br />-31,162 °F <br />428,508 °R <br />3,99 м/с99 %74 %1027 гПа46 градус(градусов)Сплошная облачность: 85-100%
Россия/Саратовская область/Балаково/Источники/OpenWeatherMap/1/2840076001979-01-01 03:00:00 +0000 UTC-33,84 °C239,31 K <br />-28,912 °F <br />430,758 °R <br />-33,84 °C239,31 K <br />-28,912 °F <br />430,758 °R <br />-33,84 °C239,31 K <br />-28,912 °F <br />430,758 °R <br />4,09 м/с100 %71 %1027 гПа57 градус(градусов)Сплошная облачность: 85-100%
Россия/Саратовская область/Балаково/Источники/OpenWeatherMap/1/2840112001979-01-01 04:00:00 +0000 UTC-34,09 °C239,06 K <br />-29,362 °F <br />430,308 °R <br />-34,09 °C239,06 K <br />-29,362 °F <br />430,308 °R <br />-34,09 °C239,06 K <br />-29,362 °F <br />430,308 °R <br />3,68 м/с100 %71 %1027 гПа68 градус(градусов)Сплошная облачность: 85-100%
Россия/Саратовская область/Балаково/Источники/OpenWeatherMap/1/2840148001979-01-01 05:00:00 +0000 UTC-34,05 °C239,1 K <br />-29,29 °F <br />430,38 °R <br />-34,05 °C239,1 K <br />-29,29 °F <br />430,38 °R <br />-34,05 °C239,1 K <br />-29,29 °F <br />430,38 °R <br />3,73 м/с100 %71 %1027 гПа64 градус(градусов)Сплошная облачность: 85-100%
Россия/Саратовская область/Балаково/Источники/OpenWeatherMap/1/2840184001979-01-01 06:00:00 +0000 UTC-33,86 °C239,29 K <br />-28,948 °F <br />430,722 °R <br />-33,86 °C239,29 K <br />-28,948 °F <br />430,722 °R <br />-33,86 °C239,29 K <br />-28,948 °F <br />430,722 °R <br />4,26 м/с100 %70 %1027 гПа68 градус(градусов)Сплошная облачность: 85-100%
Россия/Саратовская область/Балаково/Источники/OpenWeatherMap/1/2840220001979-01-01 07:00:00 +0000 UTC-34,1 °C239,05 K <br />-29,38 °F <br />430,29 °R <br />-34,1 °C239,05 K <br />-29,38 °F <br />430,29 °R <br />-34,1 °C239,05 K <br />-29,38 °F <br />430,29 °R <br />3,79 м/с100 %69 %1027 гПа73 градус(градусов)Сплошная облачность: 85-100%
Россия/Саратовская область/Балаково/Источники/OpenWeatherMap/1/2840256001979-01-01 08:00:00 +0000 UTC-34,08 °C239,07 K <br />-29,344 °F <br />430,326 °R <br />-34,08 °C239,07 K <br />-29,344 °F <br />430,326 °R <br />-34,08 °C239,07 K <br />-29,344 °F <br />430,326 °R <br />4,2 м/с100 %69 %1026 гПа76 градус(градусов)Сплошная облачность: 85-100%
Россия/Саратовская область/Балаково/Источники/OpenWeatherMap/1/2840292001979-01-01 09:00:00 +0000 UTC-32,79 °C240,36 K <br />-27,022 °F <br />432,648 °R <br />-32,79 °C240,36 K <br />-27,022 °F <br />432,648 °R <br />-32,79 °C240,36 K <br />-27,022 °F <br />432,648 °R <br />3,9 м/с100 %64 %1026 гПа77 градус(градусов)Сплошная облачность: 85-100%
Россия/Саратовская область/Балаково/Источники/OpenWeatherMap/1/2840328001979-01-01 10:00:00 +0000 UTC-28,88 °C244,27 K <br />-19,984 °F <br />439,686 °R <br />-28,88 °C244,27 K <br />-19,984 °F <br />439,686 °R <br />-28,88 °C244,27 K <br />-19,984 °F <br />439,686 °R <br />4,19 м/с100 %69 %1026 гПа80 градус(градусов)Сплошная облачность: 85-100%
Россия/Саратовская область/Балаково/Источники/OpenWeatherMap/1/2840364001979-01-01 11:00:00 +0000 UTC-28,83 °C244,32 K <br />-19,894 °F <br />439,776 °R <br />-28,83 °C244,32 K <br />-19,894 °F <br />439,776 °R <br />-28,83 °C244,32 K <br />-19,894 °F <br />439,776 °R <br />4,6 м/с100 %69 %1025 гПа80 градус(градусов)Легкий снег
Россия/Саратовская область/Балаково/Источники/OpenWeatherMap/1/2840400001979-01-01 12:00:00 +0000 UTC-28,64 °C244,51 K <br />-19,552 °F <br />440,118 °R <br />-28,64 °C244,51 K <br />-19,552 °F <br />440,118 °R <br />-28,64 °C244,51 K <br />-19,552 °F <br />440,118 °R <br />5,03 м/с100 %69 %1024 гПа79 градус(градусов)Легкий снег
Россия/Саратовская область/Балаково/Источники/OpenWeatherMap/1/2840436001979-01-01 13:00:00 +0000 UTC-28,54 °C244,61 K <br />-19,372 °F <br />440,298 °R <br />-28,54 °C244,61 K <br />-19,372 °F <br />440,298 °R <br />-28,54 °C244,61 K <br />-19,372 °F <br />440,298 °R <br />4,86 м/с100 %69 %1024 гПа82 градус(градусов)Легкий снег
Россия/Саратовская область/Балаково/Источники/OpenWeatherMap/1/2840472001979-01-01 14:00:00 +0000 UTC-28,62 °C244,53 K <br />-19,516 °F <br />440,154 °R <br />-28,62 °C244,53 K <br />-19,516 °F <br />440,154 °R <br />-28,62 °C244,53 K <br />-19,516 °F <br />440,154 °R <br />5,13 м/с100 %69 %1023 гПа85 градус(градусов)Легкий снег
Россия/Саратовская область/Балаково/Источники/OpenWeatherMap/1/2840508001979-01-01 15:00:00 +0000 UTC-24,89 °C248,26 K <br />-12,802 °F <br />446,868 °R <br />-24,89 °C248,26 K <br />-12,802 °F <br />446,868 °R <br />-24,89 °C248,26 K <br />-12,802 °F <br />446,868 °R <br />5,35 м/с100 %73 %1023 гПа88 градус(градусов)Легкий снег
Россия/Саратовская область/Балаково/Источники/OpenWeatherMap/1/2840544001979-01-01 16:00:00 +0000 UTC-24,79 °C248,36 K <br />-12,622 °F <br />447,048 °R <br />-24,79 °C248,36 K <br />-12,622 °F <br />447,048 °R <br />-24,79 °C248,36 K <br />-12,622 °F <br />447,048 °R <br />5,69 м/с100 %74 %1022 гПа90 градус(градусов)Легкий снег
Россия/Саратовская область/Балаково/Источники/OpenWeatherMap/1/2840580001979-01-01 17:00:00 +0000 UTC-24,64 °C248,51 K <br />-12,352 °F <br />447,318 °R <br />-24,64 °C248,51 K <br />-12,352 °F <br />447,318 °R <br />-24,64 °C248,51 K <br />-12,352 °F <br />447,318 °R <br />5,99 м/с100 %74 %1021 гПа91 градус(градусов)Легкий снег
Россия/Саратовская область/Балаково/Источники/OpenWeatherMap/1/2840616001979-01-01 18:00:00 +0000 UTC-24,54 °C248,61 K <br />-12,172 °F <br />447,498 °R <br />-24,54 °C248,61 K <br />-12,172 °F <br />447,498 °R <br />-24,54 °C248,61 K <br />-12,172 °F <br />447,498 °R <br />5,93 м/с100 %76 %1020 гПа90 градус(градусов)Легкий снег
Россия/Саратовская область/Балаково/Источники/OpenWeatherMap/1/2840652001979-01-01 19:00:00 +0000 UTC-24,56 °C248,59 K <br />-12,208 °F <br />447,462 °R <br />-24,56 °C248,59 K <br />-12,208 °F <br />447,462 °R <br />-24,56 °C248,59 K <br />-12,208 °F <br />447,462 °R <br />6,15 м/с100 %76 %1019 гПа88 градус(градусов)Снег
Россия/Саратовская область/Балаково/Источники/OpenWeatherMap/1/2840688001979-01-01 20:00:00 +0000 UTC-24,6 °C248,55 K <br />-12,28 °F <br />447,39 °R <br />-24,6 °C248,55 K <br />-12,28 °F <br />447,39 °R <br />-24,6 °C248,55 K <br />-12,28 °F <br />447,39 °R <br />6,18 м/с100 %76 %1019 гПа89 градус(градусов)Снег
Россия/Саратовская область/Балаково/Источники/OpenWeatherMap/1/2840724001979-01-01 21:00:00 +0000 UTC-23,6 °C249,55 K <br />-10,48 °F <br />449,19 °R <br />-23,6 °C249,55 K <br />-10,48 °F <br />449,19 °R <br />-23,6 °C249,55 K <br />-10,48 °F <br />449,19 °R <br />6,65 м/с100 %75 %1018 гПа90 градус(градусов)Снег
Россия/Саратовская область/Балаково/Источники/OpenWeatherMap/1/2840760001979-01-01 22:00:00 +0000 UTC-21,26 °C251,89 K <br />-6,268 °F <br />453,402 °R <br />-21,26 °C251,89 K <br />-6,268 °F <br />453,402 °R <br />-21,26 °C251,89 K <br />-6,268 °F <br />453,402 °R <br />7,4 м/с100 %77 %1018 гПа93 градус(градусов)Снег
Россия/Саратовская область/Балаково/Источники/OpenWeatherMap/1/2840796001979-01-01 23:00:00 +0000 UTC-21,21 °C251,94 K <br />-6,178 °F <br />453,492 °R <br />-21,21 °C251,94 K <br />-6,178 °F <br />453,492 °R <br />-21,21 °C251,94 K <br />-6,178 °F <br />453,492 °R <br />7,67 м/с100 %77 %1016 гПа99 градус(градусов)Снег
Россия/Саратовская область/Балаково/Источники/OpenWeatherMap/1/2840832001979-01-02 00:00:00 +0000 UTC-21,36 °C251,79 K <br />-6,448 °F <br />453,222 °R <br />-21,36 °C251,79 K <br />-6,448 °F <br />453,222 °R <br />-21,36 °C251,79 K <br />-6,448 °F <br />453,222 °R <br />6,77 м/с100 %77 %1016 гПа101 градус(градусов)Снег
Россия/Саратовская область/Балаково/Источники/OpenWeatherMap/1/2840868001979-01-02 01:00:00 +0000 UTC-21,42 °C251,73 K <br />-6,556 °F <br />453,114 °R <br />-21,42 °C251,73 K <br />-6,556 °F <br />453,114 °R <br />-21,42 °C251,73 K <br />-6,556 °F <br />453,114 °R <br />5,54 м/с100 %77 %1016 гПа96 градус(градусов)Снег
Россия/Саратовская область/Балаково/Источники/OpenWeatherMap/1/2840904001979-01-02 02:00:00 +0000 UTC-21,71 °C251,44 K <br />-7,078 °F <br />452,592 °R <br />-21,71 °C251,44 K <br />-7,078 °F <br />452,592 °R <br />-21,71 °C251,44 K <br />-7,078 °F <br />452,592 °R <br />5,88 м/с100 %77 %1015 гПа91 градус(градусов)Снег
Россия/Саратовская область/Балаково/Источники/OpenWeatherMap/1/2840940001979-01-02 03:00:00 +0000 UTC-18,09 °C255,06 K <br />-0,562 °F <br />459,108 °R <br />-18,09 °C255,06 K <br />-0,562 °F <br />459,108 °R <br />-18,09 °C255,06 K <br />-0,562 °F <br />459,108 °R <br />6,57 м/с100 %81 %1015 гПа91 градус(градусов)Снег
Россия/Саратовская область/Балаково/Источники/OpenWeatherMap/1/2840976001979-01-02 04:00:00 +0000 UTC-18,17 °C254,98 K <br />-0,706 °F <br />458,964 °R <br />-18,17 °C254,98 K <br />-0,706 °F <br />458,964 °R <br />-18,17 °C254,98 K <br />-0,706 °F <br />458,964 °R <br />7,06 м/с100 %81 %1013 гПа94 градус(градусов)Снег
Россия/Саратовская область/Балаково/Источники/OpenWeatherMap/1/2841012001979-01-02 05:00:00 +0000 UTC-18,26 °C254,89 K <br />-0,868 °F <br />458,802 °R <br />-18,26 °C254,89 K <br />-0,868 °F <br />458,802 °R <br />-18,26 °C254,89 K <br />-0,868 °F <br />458,802 °R <br />6,8 м/с100 %81 %1013 гПа97 градус(градусов)Снег
Россия/Саратовская область/Балаково/Источники/OpenWeatherMap/1/2841048001979-01-02 06:00:00 +0000 UTC-17,92 °C255,23 K <br />-0,256 °F <br />459,414 °R <br />-17,92 °C255,23 K <br />-0,256 °F <br />459,414 °R <br />-17,92 °C255,23 K <br />-0,256 °F <br />459,414 °R <br />6,53 м/с100 %81 %1013 гПа97 градус(градусов)Снег
Россия/Саратовская область/Балаково/Источники/OpenWeatherMap/1/2841084001979-01-02 07:00:00 +0000 UTC-18,01 °C255,14 K <br />-0,418 °F <br />459,252 °R <br />-18,01 °C255,14 K <br />-0,418 °F <br />459,252 °R <br />-18,01 °C255,14 K <br />-0,418 °F <br />459,252 °R <br />6,84 м/с100 %81 %1012 гПа97 градус(градусов)Снег
Россия/Саратовская область/Балаково/Источники/OpenWeatherMap/1/2841120001979-01-02 08:00:00 +0000 UTC-18 °C255,15 K <br />-0,4 °F <br />459,27 °R <br />-18 °C255,15 K <br />-0,4 °F <br />459,27 °R <br />-18 °C255,15 K <br />-0,4 °F <br />459,27 °R <br />7 м/с100 %81 %1011 гПа99 градус(градусов)Снег
Россия/Саратовская область/Балаково/Источники/OpenWeatherMap/1/2841156001979-01-02 09:00:00 +0000 UTC-15,99 °C257,16 K <br />3,218 °F <br />462,888 °R <br />-15,99 °C257,16 K <br />3,218 °F <br />462,888 °R <br />-15,99 °C257,16 K <br />3,218 °F <br />462,888 °R <br />6,61 м/с100 %84 %1010 гПа101 градус(градусов)Снег
Россия/Саратовская область/Балаково/Источники/OpenWeatherMap/1/2841192001979-01-02 10:00:00 +0000 UTC-13,54 °C259,61 K <br />7,628 °F <br />467,298 °R <br />-13,54 °C259,61 K <br />7,628 °F <br />467,298 °R <br />-13,54 °C259,61 K <br />7,628 °F <br />467,298 °R <br />6,78 м/с100 %84 %1009 гПа101 градус(градусов)Снег
Россия/Саратовская область/Балаково/Источники/OpenWeatherMap/1/2841228001979-01-02 11:00:00 +0000 UTC-13,69 °C259,46 K <br />7,358 °F <br />467,028 °R <br />-13,69 °C259,46 K <br />7,358 °F <br />467,028 °R <br />-13,69 °C259,46 K <br />7,358 °F <br />467,028 °R <br />7,35 м/с100 %84 %1007 гПа102 градус(градусов)Снег
Россия/Саратовская область/Балаково/Источники/OpenWeatherMap/1/2841264001979-01-02 12:00:00 +0000 UTC-13,7 °C259,45 K <br />7,34 °F <br />467,01 °R <br />-13,7 °C259,45 K <br />7,34 °F <br />467,01 °R <br />-13,7 °C259,45 K <br />7,34 °F <br />467,01 °R <br />6,71 м/с100 %84 %1006 гПа107 градус(градусов)Снег
Россия/Саратовская область/Балаково/Источники/OpenWeatherMap/1/2841300001979-01-02 13:00:00 +0000 UTC-13,7 °C259,45 K <br />7,34 °F <br />467,01 °R <br />-13,7 °C259,45 K <br />7,34 °F <br />467,01 °R <br />-13,7 °C259,45 K <br />7,34 °F <br />467,01 °R <br />5,8 м/с100 %84 %1006 гПа110 градус(градусов)Снег
Россия/Саратовская область/Балаково/Источники/OpenWeatherMap/1/2841336001979-01-02 14:00:00 +0000 UTC-13,53 °C259,62 K <br />7,646 °F <br />467,316 °R <br />-13,53 °C259,62 K <br />7,646 °F <br />467,316 °R <br />-13,53 °C259,62 K <br />7,646 °F <br />467,316 °R <br />5,98 м/с100 %85 %1006 гПа111 градус(градусов)Снег
Россия/Саратовская область/Балаково/Источники/OpenWeatherMap/1/2841372001979-01-02 15:00:00 +0000 UTC-9,83 °C263,32 K <br />14,306 °F <br />473,976 °R <br />-9,83 °C263,32 K <br />14,306 °F <br />473,976 °R <br />-9,83 °C263,32 K <br />14,306 °F <br />473,976 °R <br />6,24 м/с100 %89 %1004 гПа115 градус(градусов)Снег
Россия/Саратовская область/Балаково/Источники/OpenWeatherMap/1/2841408001979-01-02 16:00:00 +0000 UTC-9,44 °C263,71 K <br />15,008 °F <br />474,678 °R <br />-9,44 °C263,71 K <br />15,008 °F <br />474,678 °R <br />-9,44 °C263,71 K <br />15,008 °F <br />474,678 °R <br />6,2 м/с99 %89 %1003 гПа121 градус(градусов)Снег
Россия/Саратовская область/Балаково/Источники/OpenWeatherMap/1/2841444001979-01-02 17:00:00 +0000 UTC-9,03 °C264,12 K <br />15,746 °F <br />475,416 °R <br />-9,03 °C264,12 K <br />15,746 °F <br />475,416 °R <br />-9,03 °C264,12 K <br />15,746 °F <br />475,416 °R <br />6,47 м/с100 %89 %1002 гПа128 градус(градусов)Снег
Россия/Саратовская область/Балаково/Источники/OpenWeatherMap/1/2841480001979-01-02 18:00:00 +0000 UTC-8,58 °C264,57 K <br />16,556 °F <br />476,226 °R <br />-8,58 °C264,57 K <br />16,556 °F <br />476,226 °R <br />-8,58 °C264,57 K <br />16,556 °F <br />476,226 °R <br />6,59 м/с100 %89 %1001 гПа135 градус(градусов)Снег
Россия/Саратовская область/Балаково/Источники/OpenWeatherMap/1/2841516001979-01-02 19:00:00 +0000 UTC-7,91 °C265,24 K <br />17,762 °F <br />477,432 °R <br />-7,91 °C265,24 K <br />17,762 °F <br />477,432 °R <br />-7,91 °C265,24 K <br />17,762 °F <br />477,432 °R <br />6,63 м/с100 %90 %1001 гПа140 градус(градусов)Снег
Россия/Саратовская область/Балаково/Источники/OpenWeatherMap/1/2841552001979-01-02 20:00:00 +0000 UTC-7,13 °C266,02 K <br />19,166 °F <br />478,836 °R <br />-7,13 °C266,02 K <br />19,166 °F <br />478,836 °R <br />-7,13 °C266,02 K <br />19,166 °F <br />478,836 °R <br />6,67 м/с100 %91 %999 гПа146 градус(градусов)Снег
Россия/Саратовская область/Балаково/Источники/OpenWeatherMap/1/2841588001979-01-02 21:00:00 +0000 UTC-4,1 °C269,05 K <br />24,62 °F <br />484,29 °R <br />-4,1 °C269,05 K <br />24,62 °F <br />484,29 °R <br />-4,1 °C269,05 K <br />24,62 °F <br />484,29 °R <br />6,78 м/с100 %93 %999 гПа153 градус(градусов)Снег
Россия/Саратовская область/Балаково/Источники/OpenWeatherMap/1/2841624001979-01-02 22:00:00 +0000 UTC-4,04 °C269,11 K <br />24,728 °F <br />484,398 °R <br />-4,04 °C269,11 K <br />24,728 °F <br />484,398 °R <br />-4,04 °C269,11 K <br />24,728 °F <br />484,398 °R <br />6,22 м/с100 %93 %998 гПа155 градус(градусов)Легкий снег
Россия/Саратовская область/Балаково/Источники/OpenWeatherMap/1/2841660001979-01-02 23:00:00 +0000 UTC-3,24 °C269,91 K <br />26,168 °F <br />485,838 °R <br />-3,24 °C269,91 K <br />26,168 °F <br />485,838 °R <br />-3,24 °C269,91 K <br />26,168 °F <br />485,838 °R <br />5,78 м/с100 %95 %997 гПа160 градус(градусов)Легкий снег
Россия/Саратовская область/Балаково/Источники/OpenWeatherMap/1/2841696001979-01-03 00:00:00 +0000 UTC-2,64 °C270,51 K <br />27,248 °F <br />486,918 °R <br />-2,64 °C270,51 K <br />27,248 °F <br />486,918 °R <br />-2,64 °C270,51 K <br />27,248 °F <br />486,918 °R <br />5,27 м/с100 %96 %997 гПа167 градус(градусов)Легкий снег
Россия/Саратовская область/Балаково/Источники/OpenWeatherMap/1/2841732001979-01-03 01:00:00 +0000 UTC-2,01 °C271,14 K <br />28,382 °F <br />488,052 °R <br />-2,01 °C271,14 K <br />28,382 °F <br />488,052 °R <br />-2,01 °C271,14 K <br />28,382 °F <br />488,052 °R <br />5,04 м/с100 %97 %997 гПа177 градус(градусов)Легкий снег
… следующие результаты

См.также

Внешние ссылки